EDDH METAR and TAF weather

Enter ICAO airport designator

Example: see airport list

Station Type Date Time Source
EDDH METAR 2016/05/31 03:20 UTC NOAA

EDDH 310320Z 06006KT 6000 SCT003 BKN005 16/15 Q1009 TEMPO 4000 BR BKN004

Station Type Date Time Source
EDDH Decoded METAR 2016/05/31 03:20 UTC NOAA

Hamburg-Fuhlsbuettel, Germany (EDDH) 53-38N 010-00E 15M
May 30, 2016 - 11:20 PM EDT / 2016.05.31 0320 UTC
Wind: from the ENE (060 degrees) at 7 MPH (6 KT):0
Visibility: 3 mile(s):0
Sky conditions: mostly cloudy
Temperature: 60 F (16 C)
Dew Point: 59 F (15 C)
Relative Humidity: 93%
Pressure (altimeter): 29.80 in. Hg (1009 hPa)
ob: EDDH 310320Z 06006KT 6000 SCT003 BKN005 16/15 Q1009 TEMPO 4000 BR BKN004
cycle: 3

Station Type Date Time Source
EDDH TAF 2016/05/31 02:25 UTC NOAA

TAF
AMD EDDH 310219Z 3102/0106 07007KT 9999 SCT040
TEMPO 3102/3107 4000 BR BKN008 PROB30
TEMPO 3102/3106 BKN003 PROB30
TEMPO 3112/3120 09015G30KT 4500 TSGR BKN014CB PROB40
TEMPO 0100/0106 3500 BR BKN008